• Join FlightAware (Why Join?)
  • Login
  • US Flag 
Gobble Gobble! 
06:37PM EST


 

Airport Tracker/Info


-or-


 

Live Flight TrackerFlight Track Log ✈ USC608 ✈ 18-Apr-2013 ✈ KSTP - KOMA

Flight Track Log - Related Links

Times and Time Zones

All times are in EDT time to prevent confusion due to time zone crossing. See the USC608 flight status page for this flight to view local times or setup timezone preferences in your user account.

Time Position Orientation Groundspeed Altitude Reporting Facility
EDT Latitude Longitude Course Direction KTS MPH feet Rate Location/Type
10:42PM 44.9550 -93.0678 46° Northeast 127 146 1,700  Level FAA TRACON SMA TRACON (SMA)
10:42PM 44.9647 -93.0533 46° Northeast 131 151 2,500 1,920 Climbing FAA TRACON SMA TRACON (SMA)
10:42PM 44.9717 -93.0478 30° Northeast 116 133 3,000 1,020 Climbing FAA TRACON SMA TRACON (SMA)
10:43PM 44.9761 -93.0600 297° West 138 159 3,200 900 Climbing FAA TRACON SMA TRACON (SMA)
10:43PM 44.9708 -93.0789 248° West 145 167 3,600 1,200 Climbing FAA TRACON SMA TRACON (SMA)
10:43PM 44.9572 -93.0894 209° Southwest 173 199 4,000 1,140 Climbing FAA TRACON SMA TRACON (SMA)
10:44PM 44.9444 -93.0989 208° Southwest 173 199 4,400 1,020 Climbing FAA TRACON SMA TRACON (SMA)
10:44PM 44.9278 -93.1103 206° Southwest 173 199 4,700 720 Climbing FAA TRACON SMA TRACON (SMA)
10:44PM 44.9142 -93.1211 209° Southwest 178 205 4,900 420 Climbing FAA TRACON SMA TRACON (SMA)
10:45PM 44.9008 -93.1336 214° Southwest 185 213 5,000 120 Climbing FAA TRACON SMA TRACON (SMA)
10:45PM 44.8836 -93.1525 218° Southwest 202 232 5,000  Level FAA TRACON SMA TRACON (SMA)
10:45PM 44.8689 -93.1681 217° Southwest 212 244 5,000  Level FAA TRACON SMA TRACON (SMA)
10:46PM 44.8542 -93.1842 218° Southwest 218 251 5,000 120 Level FAA TRACON SMA TRACON (SMA)
10:46PM 44.8389 -93.1989 214° Southwest 217 250 5,100 420 Climbing FAA TRACON SMA TRACON (SMA)
10:46PM 44.8203 -93.2136 209° Southwest 204 235 5,300 720 Climbing FAA TRACON SMA TRACON (SMA)
10:47PM 44.8056 -93.2256 210° Southwest 198 228 5,600 900 Climbing FAA TRACON SMA TRACON (SMA)
10:47PM 44.7906 -93.2347 203° Southwest 191 220 5,900 420 Climbing FAA TRACON SMA TRACON (SMA)
10:47PM 44.7722 -93.2472 206° Southwest 190 219 5,900 120 Level FAA TRACON SMA TRACON (SMA)
10:48PM 44.7569 -93.2592 209° Southwest 200 230 6,000 120 Climbing FAA TRACON SMA TRACON (SMA)
10:48PM 44.7419 -93.2719 211° Southwest 205 236 6,000  Level FAA TRACON SMA TRACON (SMA)
10:48PM 44.7264 -93.2847 210° Southwest 210 242 6,000  Level FAA TRACON SMA TRACON (SMA)
10:49PM 44.7067 -93.3014 211° Southwest 213 245 6,000  Level FAA TRACON SMA TRACON (SMA)
10:49PM 44.6906 -93.3150 211° Southwest 218 251 6,000  Level FAA TRACON SMA TRACON (SMA)
10:49PM 44.6742 -93.3283 210° Southwest 221 254 6,000  Level FAA TRACON SMA TRACON (SMA)
10:50PM 44.6544 -93.3458 212° Southwest 219 252 6,000  Level FAA TRACON SMA TRACON (SMA)
10:50PM 44.6381 -93.3586 209° Southwest 219 252 6,000  Level FAA TRACON SMA TRACON (SMA)
10:50PM 44.6222 -93.3728 212° Southwest 218 251 6,000  Level FAA TRACON SMA TRACON (SMA)
10:51PM 44.6025 -93.3908 213° Southwest 218 251 6,000  Level FAA TRACON SMA TRACON (SMA)
10:51PM 44.5867 -93.4033 209° Southwest 215 247 6,000  Level FAA TRACON SMA TRACON (SMA)
10:51PM 44.5708 -93.4172 212° Southwest 216 249 6,000  Level FAA TRACON SMA TRACON (SMA)
10:52PM 44.5514 -93.4344 212° Southwest 214 246 6,000  Level FAA TRACON SMA TRACON (SMA)
10:52PM 44.5356 -93.4475 210° Southwest 213 245 6,000  Level FAA TRACON SMA TRACON (SMA)
10:52PM 44.5206 -93.4625 215° Southwest 214 246 6,000  Level FAA TRACON SMA TRACON (SMA)
10:53PM 44.5011 -93.4789 211° Southwest 212 244 6,000  Level FAA TRACON SMA TRACON (SMA)
10:53PM 44.4864 -93.4933 215° Southwest 211 243 6,000  Level FAA TRACON SMA TRACON (SMA)
10:53PM 44.4703 -93.5058 209° Southwest 211 243 6,000  Level FAA TRACON SMA TRACON (SMA)
10:54PM 44.4553 -93.5194 213° Southwest 212 244 6,000  Level FAA TRACON SMA TRACON (SMA)
10:54PM 44.4358 -93.5356 211° Southwest 212 244 6,000  Level FAA TRACON SMA TRACON (SMA)
10:54PM 44.4197 -93.5475 208° Southwest 210 242 6,000  Level FAA TRACON SMA TRACON (SMA)
10:55PM 44.4000 -93.5636 210° Southwest 213 245 6,000  Level FAA TRACON SMA TRACON (SMA)
10:55PM 44.3850 -93.5778 214° Southwest 212 244 6,000  Level FAA TRACON SMA TRACON (SMA)
10:55PM 44.3694 -93.5908 211° Southwest 211 243 6,000  Level FAA TRACON SMA TRACON (SMA)
10:56PM 44.3500 -93.6072 211° Southwest 211 243 6,000  Level FAA TRACON SMA TRACON (SMA)
10:56PM 44.3339 -93.6183 206° Southwest 210 242 6,000 -180 Level FAA TRACON SMA TRACON (SMA)
10:56PM 44.3164 -93.6261 198° South 211 243 5,900 -180 Descending FAA TRACON SMA TRACON (SMA)
10:57PM 44.2961 -93.6400 206° Southwest 212 244 5,900 120 Level FAA TRACON SMA TRACON (SMA)
10:57PM 44.2800 -93.6508 206° Southwest 210 242 6,000 120 Climbing FAA TRACON SMA TRACON (SMA)
10:57PM 44.2639 -93.6619 206° Southwest 209 241 6,000  Level FAA TRACON SMA TRACON (SMA)
10:58PM 44.2425 -93.6731 200° South 211 243 6,000 -180 Level FAA TRACON SMA TRACON (SMA)
10:58PM 44.2267 -93.6856 209° Southwest 210 242 5,900 -180 Descending FAA TRACON SMA TRACON (SMA)
10:58PM 44.2117 -93.6997 214° Southwest 211 243 5,900  Level FAA TRACON SMA TRACON (SMA)
10:59PM 44.1961 -93.7122 210° Southwest 210 242 5,900  Level FAA TRACON SMA TRACON (SMA)
10:59PM 44.1769 -93.7272 209° Southwest 207 238 5,900  Level FAA TRACON SMA TRACON (SMA)
10:59PM 44.1614 -93.7400 211° Southwest 209 241 5,900  Level FAA TRACON SMA TRACON (SMA)
11:00PM 44.1464 -93.7542 214° Southwest 210 242 5,900  Level FAA TRACON SMA TRACON (SMA)
11:00PM 44.1275 -93.7697 211° Southwest 207 238 5,900  Level FAA TRACON SMA TRACON (SMA)
11:00PM 44.1122 -93.7822 210° Southwest 207 238 5,900  Level FAA TRACON SMA TRACON (SMA)
11:01PM 44.0939 -93.7997 214° Southwest 207 238 5,900  Level FAA TRACON SMA TRACON (SMA)
11:01PM 44.0783 -93.8128 211° Southwest 209 241 5,900  Level FAA TRACON SMA TRACON (SMA)
11:01PM 44.0633 -93.8258 212° Southwest 208 239 5,900  Level FAA TRACON SMA TRACON (SMA)
11:02PM 44.0442 -93.8417 211° Southwest 208 239 5,900  Level FAA TRACON SMA TRACON (SMA)
11:02PM 44.0283 -93.8528 207° Southwest 207 238 5,900  Level FAA TRACON SMA TRACON (SMA)
11:02PM 44.0136 -93.8661 213° Southwest 205 236 5,900  Level FAA TRACON SMA TRACON (SMA)
11:03PM 44.0058 -93.8717 207° Southwest 204 235 5,900 180 Level FAA TRACON SMA TRACON (SMA)
11:03PM 43.9758 -93.8947 209° Southwest 204 235 6,100 120 Climbing Minneapolis Center
11:04PM 43.9253 -93.9314 208° Southwest 203 234 6,100  Level Minneapolis Center
11:05PM 43.8744 -93.9683 208° Southwest 207 238 6,100  Level Minneapolis Center
11:06PM 43.8253 -94.0061 209° Southwest 205 236 6,100 -60 Level Minneapolis Center
11:07PM 43.7775 -94.0472 212° Southwest 203 234 6,000 -60 Descending Minneapolis Center
11:08PM 43.7197 -94.0922 209° Southwest 201 231 6,000  Level Minneapolis Center
11:09PM 43.6711 -94.1294 209° Southwest 200 230 6,000  Level Minneapolis Center
11:10PM 43.6222 -94.1683 210° Southwest 202 232 6,000  Level Minneapolis Center
11:11PM 43.5744 -94.2064 210° Southwest 201 231 6,000  Level Minneapolis Center
11:12PM 43.5258 -94.2447 210° Southwest 200 230 6,000  Level Minneapolis Center
11:13PM 43.4731 -94.2819 207° Southwest 202 232 6,000  Level Minneapolis Center
11:14PM 43.4231 -94.3161 206° Southwest 201 231 6,000  Level Minneapolis Center
11:15PM 43.3747 -94.3558 211° Southwest 202 232 6,000  Level Minneapolis Center
11:16PM 43.3286 -94.3936 211° Southwest 200 230 6,000  Level Minneapolis Center
11:17PM 43.2794 -94.4342 211° Southwest 200 230 6,000  Level Minneapolis Center
11:19PM 43.2192 -94.4800 209° Southwest 203 234 6,000  Level Minneapolis Center
11:20PM 43.1706 -94.5158 208° Southwest 202 232 6,000  Level Minneapolis Center
11:21PM 43.1169 -94.5594 211° Southwest 207 238 6,000  Level Minneapolis Center
11:22PM 43.0703 -94.5936 208° Southwest 207 238 6,000  Level Minneapolis Center
11:23PM 43.0158 -94.6369 210° Southwest 208 239 6,000  Level Minneapolis Center
11:24PM 42.9667 -94.6728 208° Southwest 208 239 6,000  Level Minneapolis Center
11:25PM 42.9150 -94.7153 211° Southwest 211 243 6,000  Level Minneapolis Center
11:27PM 42.8151 -94.7595 207° Southwest  Level FlightAware Approximate
11:29PM 42.7158 -94.8644 209° Southwest 230 265 6,000  Level Minneapolis Center
11:30PM 42.6647 -94.9019 208° Southwest 211 243 6,000  Level Minneapolis Center
11:31PM 42.6125 -94.9403 208° Southwest 212 244 6,000 60 Level Minneapolis Center
11:32PM 42.5611 -94.9764 207° Southwest 210 242 6,200 60 Climbing Minneapolis Center
11:33PM 42.5100 -95.0128 208° Southwest 209 241 6,200  Level Minneapolis Center
11:34PM 42.4817 -95.0048 209° Southwest  Level FlightAware Approximate
11:34PM 42.4594 -95.0486 208° Southwest 207 238 6,200  Level Minneapolis Center
11:35PM 42.4089 -95.0856 208° Southwest 206 237 6,100  Descending Minneapolis Center
11:36PM 42.3486 -95.1297 208° Southwest 206 237 6,200 -60 Climbing Minneapolis Center
11:37PM 42.2989 -95.1700 211° Southwest 206 237 6,000 -120 Descending Minneapolis Center
11:38PM 42.2497 -95.2100 211° Southwest 207 238 6,000 -60 Level Minneapolis Center
11:39PM 42.2000 -95.2472 209° Southwest 206 237 5,900  Descending Minneapolis Center
11:40PM 42.1497 -95.2836 208° Southwest 205 236 6,000 60 Climbing Minneapolis Center
11:41PM 42.0992 -95.3211 209° Southwest 206 237 6,100  Climbing Minneapolis Center
11:42PM 42.0483 -95.3561 207° Southwest 206 237 6,100  Level Minneapolis Center
11:42PM 42.0172 -95.4028 228° Southwest 208 239 6,100  Level Minneapolis Center
11:43PM 41.9967 -95.3917 158° South 206 237 6,100  Level Minneapolis Center
11:44PM 41.9472 -95.4314 211° Southwest 207 238 6,100  Level Minneapolis Center
11:44PM 41.9292 -95.4614 231° Southwest 211 243 6,100 -120 Level Minneapolis Center
11:45PM 41.8894 -95.4497 168° South 212 244 6,000  Descending Minneapolis Center
11:45PM 41.8669 -95.4664 209° Southwest 225 259 6,100 60 Climbing Minneapolis Center
11:46PM 41.8278 -95.4567 170° South 219 252 6,100  Level Minneapolis Center
11:46PM 41.8069 -95.4767 216° Southwest 219 252 6,100  Level Minneapolis Center
11:47PM 41.7672 -95.4714 174° South 220 253 6,100  Level Minneapolis Center
11:47PM 41.7433 -95.4956 217° Southwest 216 249 6,100  Level Minneapolis Center
11:48PM 41.6975 -95.4961 181° South 218 251 6,100  Level Minneapolis Center
11:48PM 41.6800 -95.5175 222° Southwest 218 251 6,100  Level Minneapolis Center
11:49PM 41.6389 -95.5183 181° South 218 251 6,100 -120 Level Minneapolis Center
11:49PM 41.6225 -95.5356 218° Southwest 217 250 6,000 -300 Descending Minneapolis Center
11:50PM 41.5800 -95.5364 181° South 217 250 5,800 -420 Descending Minneapolis Center
11:50PM 41.5631 -95.5514 214° Southwest 218 251 5,600 -660 Descending Minneapolis Center
11:51PM 41.5075 -95.5664 191° South 217 250 5,000 -480 Descending Minneapolis Center
11:52PM 41.4633 -95.5711 185° South 215 247 4,800 -360 Descending Minneapolis Center
11:52PM 41.4478 -95.5792 201° Southwest 208 239 4,600 -600 Descending Minneapolis Center
11:53PM 41.4044 -95.5728 174° South 212 244 4,200 -540 Descending Minneapolis Center
11:53PM 41.3844 -95.5731 181° South 209 241 4,100 -240 Descending Minneapolis Center
11:54PM 41.3464 -95.5656 172° South 210 242 4,000  Descending Minneapolis Center
11:54PM 41.3275 -95.5686 187° South 199 229 4,100  Climbing Minneapolis Center
11:55PM 41.2936 -95.5625 172° South 201 231 4,000 60 Descending Minneapolis Center
11:55PM 41.2772 -95.5664 190° South 185 213 4,200 60 Climbing Minneapolis Center
11:56PM 41.2419 -95.5614 174° South 193 222 4,100 -240 Descending Minneapolis Center
11:56PM 41.2322 -95.5803 236° Southwest 173 199 4,000  Descending Minneapolis Center
11:57PM 41.2072 -95.5994 210° Southwest 173 199 4,100 60 Climbing Minneapolis Center
11:57PM 41.1947 -95.6153 224° Southwest 161 185 4,100 -120 Level Minneapolis Center
11:58PM 41.1714 -95.6375 216° Southwest 166 191 4,000 -240 Descending Minneapolis Center
11:59PM 41.1481 -95.6956 242° Southwest 141 162 3,700 -420 Descending Minneapolis Center
12:00AM 41.1519 -95.7267 279° West 144 166 3,200 -420 Descending Minneapolis Center
12:01AM 41.1675 -95.7625 300° West 123 142 3,000 -180 Descending Minneapolis Center
12:01AM 41.1806 -95.7750 324° Northwest 106 122 3,000 60 Level Minneapolis Center
12:02AM 41.1969 -95.7925 321° Northwest 112 129 3,100  Climbing Minneapolis Center
12:03AM 41.2214 -95.8119 329° Northwest 109 125 3,000 -300 Descending Minneapolis Center
12:04AM 41.2389 -95.8286 324° Northwest 94 108 2,500 -480 Descending Minneapolis Center
12:05AM 41.2581 -95.8469 324° Northwest 87 100 2,100 -480 Descending Minneapolis Center
12:06AM 41.2778 -95.8661 324° Northwest 87 100 1,600 -600 Descending Minneapolis Center
12:07AM 41.2972 -95.8850 324° Northwest 87 100 1,000 -600 Descending Minneapolis Center